Terminal Aerodrome Forecast
Issued by NWS Albany, NY

Home | Current Version | Previous Version | Text Only | Print | Product List | Glossary On
Versions: 1 2 3 4 5 6 7 8 9 10 11 12 13 14 15
000
FTUS41 KALY 191100
TAFALB
TAF
KALB 191137Z 1912/2012 01006KT P6SM BKN040
     FM191400 05005KT P6SM SKC
     FM191900 15006KT P6SM SKC
     FM200000 15003KT P6SM SCT050=

USA.gov is the U.S. government's official web portal to all federal, state and local government web resources and services.